createdAt,value
2018-03-26T00:00:29.825Z,0.00
2018-03-26T00:01:29.801Z,0.00
2018-03-26T00:02:29.801Z,0.00
2018-03-26T00:03:29.794Z,0.00
2018-03-26T00:04:29.782Z,0.00
2018-03-26T00:05:29.764Z,0.00
2018-03-26T00:06:29.764Z,0.00
2018-03-26T00:07:29.750Z,0.00
2018-03-26T00:08:29.758Z,0.00
2018-03-26T00:09:29.742Z,0.00
2018-03-26T00:10:29.717Z,0.00
2018-03-26T00:11:29.721Z,0.00
2018-03-26T00:12:29.698Z,0.00
2018-03-26T00:13:29.700Z,0.00
2018-03-26T00:14:29.696Z,0.00
2018-03-26T00:15:29.672Z,0.00
2018-03-26T00:16:29.663Z,0.00
2018-03-26T00:17:29.655Z,0.00
2018-03-26T00:18:29.644Z,0.00
2018-03-26T00:19:29.647Z,0.00
2018-03-26T00:20:29.626Z,0.00
2018-03-26T00:21:29.628Z,0.00
2018-03-26T00:22:29.618Z,0.00
2018-03-26T00:23:29.600Z,0.00
2018-03-26T00:24:29.588Z,0.00
2018-03-26T00:25:29.593Z,0.00
2018-03-26T00:26:29.573Z,0.00
2018-03-26T00:27:29.563Z,0.00
2018-03-26T00:28:29.564Z,0.00
2018-03-26T00:29:29.554Z,0.00
2018-03-26T00:30:29.547Z,0.00
2018-03-26T00:31:29.528Z,0.00
2018-03-26T00:32:29.536Z,0.00
2018-03-26T00:33:29.507Z,0.00
2018-03-26T00:34:29.499Z,0.00
2018-03-26T00:35:29.489Z,0.00
2018-03-26T00:36:29.490Z,0.00
2018-03-26T00:37:29.490Z,0.00
2018-03-26T00:38:29.461Z,0.00
2018-03-26T00:39:29.452Z,0.00
2018-03-26T00:40:29.443Z,0.00
2018-03-26T00:41:29.443Z,0.00
2018-03-26T00:42:29.429Z,0.00
2018-03-26T00:43:29.428Z,0.00
2018-03-26T00:44:29.418Z,0.00
2018-03-26T00:45:29.398Z,0.00
2018-03-26T00:46:29.390Z,0.00
2018-03-26T00:47:29.380Z,0.00
2018-03-26T00:48:29.369Z,0.00
2018-03-26T00:49:29.362Z,0.00
2018-03-26T00:50:29.362Z,0.00
2018-03-26T00:51:29.381Z,0.00
2018-03-26T00:52:29.346Z,0.00
2018-03-26T00:53:29.324Z,0.00
2018-03-26T00:54:29.325Z,0.00
2018-03-26T00:55:29.306Z,0.00
2018-03-26T00:56:29.295Z,0.00
2018-03-26T00:57:29.287Z,0.00
2018-03-26T00:58:29.282Z,0.00
2018-03-26T00:59:29.267Z,0.00
2018-03-26T01:00:29.256Z,0.00
2018-03-26T01:01:29.251Z,0.00
2018-03-26T01:02:29.252Z,0.00
2018-03-26T01:03:29.228Z,0.00
2018-03-26T01:04:29.244Z,0.00
2018-03-26T01:05:29.225Z,0.00
2018-03-26T01:06:29.207Z,0.00
2018-03-26T01:07:29.192Z,0.00
2018-03-26T01:08:29.183Z,0.00
2018-03-26T01:09:29.175Z,0.00
2018-03-26T01:10:29.163Z,0.00
2018-03-26T01:11:29.157Z,0.00
2018-03-26T01:12:29.156Z,0.00
2018-03-26T01:13:29.136Z,0.00
2018-03-26T01:14:29.138Z,0.00
2018-03-26T01:15:29.118Z,0.00
2018-03-26T01:16:29.113Z,0.00
2018-03-26T01:17:29.101Z,0.00
2018-03-26T01:18:29.111Z,0.00
2018-03-26T01:19:29.102Z,0.00
2018-03-26T01:20:29.082Z,0.00
2018-03-26T01:21:29.086Z,0.00
2018-03-26T01:22:29.055Z,0.00
2018-03-26T01:23:29.043Z,0.00
2018-03-26T01:24:29.052Z,0.00
2018-03-26T01:25:29.046Z,0.00
2018-03-26T01:26:29.028Z,0.00
2018-03-26T01:27:29.020Z,0.00
2018-03-26T01:28:29.008Z,0.00
2018-03-26T01:29:28.996Z,0.00
2018-03-26T01:30:28.988Z,0.00
2018-03-26T01:31:28.967Z,0.00
2018-03-26T01:32:28.959Z,0.00
2018-03-26T01:33:28.952Z,0.00
2018-03-26T01:34:28.943Z,0.00
2018-03-26T01:35:28.947Z,0.00
2018-03-26T01:36:28.921Z,0.00
2018-03-26T01:37:28.911Z,0.00
2018-03-26T01:38:28.911Z,0.00
2018-03-26T01:39:28.904Z,0.00
2018-03-26T01:40:28.883Z,0.00
2018-03-26T01:41:28.877Z,0.00
2018-03-26T01:42:28.876Z,0.00
2018-03-26T01:43:28.865Z,0.00
2018-03-26T01:44:28.846Z,0.00
2018-03-26T01:45:28.859Z,0.00
2018-03-26T01:46:28.824Z,0.00
2018-03-26T01:47:28.828Z,0.00
2018-03-26T01:48:28.810Z,0.00
2018-03-26T01:49:28.806Z,0.00
2018-03-26T01:50:28.787Z,0.00
2018-03-26T01:51:28.790Z,0.00
2018-03-26T01:52:28.779Z,0.00
2018-03-26T01:53:28.757Z,0.00
2018-03-26T01:54:28.750Z,0.00
2018-03-26T01:55:28.737Z,0.00
2018-03-26T01:56:28.726Z,0.00
2018-03-26T01:57:28.714Z,0.00
2018-03-26T01:58:28.708Z,0.00
2018-03-26T01:59:28.700Z,0.00
2018-03-26T02:00:28.692Z,0.00
2018-03-26T02:01:28.677Z,0.00
2018-03-26T02:02:28.670Z,0.00
2018-03-26T02:03:28.668Z,0.00
2018-03-26T02:04:28.654Z,0.00
2018-03-26T02:05:28.641Z,0.00
2018-03-26T02:06:28.633Z,0.00
2018-03-26T02:07:28.623Z,0.00
2018-03-26T02:08:28.613Z,0.00
2018-03-26T02:09:28.605Z,0.00
2018-03-26T02:10:28.595Z,0.00
2018-03-26T02:11:28.585Z,0.00
2018-03-26T02:12:28.577Z,0.00
2018-03-26T02:13:28.568Z,0.00
2018-03-26T02:14:28.558Z,0.00
2018-03-26T02:15:28.546Z,0.00
2018-03-26T02:16:28.558Z,0.00
2018-03-26T02:17:28.528Z,0.00
2018-03-26T02:18:28.520Z,0.00
2018-03-26T02:19:28.509Z,0.00
2018-03-26T02:20:28.500Z,0.00
2018-03-26T02:21:28.490Z,0.00
2018-03-26T02:22:28.481Z,0.00
2018-03-26T02:23:28.471Z,0.00
2018-03-26T02:24:28.467Z,0.00
2018-03-26T02:25:28.451Z,0.00
2018-03-26T02:26:28.443Z,0.00
2018-03-26T02:27:28.433Z,0.00
2018-03-26T02:28:28.424Z,0.00
2018-03-26T02:29:28.414Z,0.00
2018-03-26T02:30:28.403Z,0.00
2018-03-26T02:31:28.396Z,0.00
2018-03-26T02:32:28.387Z,0.00
2018-03-26T02:33:28.377Z,0.00
2018-03-26T02:34:28.367Z,0.00
2018-03-26T02:35:28.355Z,0.00
2018-03-26T02:36:28.346Z,0.00
2018-03-26T02:37:28.342Z,0.00
2018-03-26T02:38:28.326Z,0.00
2018-03-26T02:39:28.320Z,0.00
2018-03-26T02:40:28.309Z,0.00
2018-03-26T02:41:28.298Z,0.00
2018-03-26T02:42:28.289Z,0.00
2018-03-26T02:43:28.279Z,0.00
2018-03-26T02:44:28.268Z,0.00
2018-03-26T02:45:28.260Z,0.00
2018-03-26T02:46:28.252Z,0.00
2018-03-26T02:47:28.238Z,0.00
2018-03-26T02:48:28.232Z,0.00
2018-03-26T02:49:28.222Z,0.00
2018-03-26T02:50:28.211Z,0.00
2018-03-26T02:51:28.208Z,0.00
2018-03-26T02:52:28.195Z,0.00
2018-03-26T02:53:28.182Z,0.00
2018-03-26T02:54:28.175Z,0.00
2018-03-26T02:55:28.164Z,0.00
2018-03-26T02:56:28.155Z,0.00
2018-03-26T02:57:28.145Z,0.00
2018-03-26T02:58:28.135Z,0.00
2018-03-26T02:59:28.124Z,0.00
2018-03-26T03:00:28.115Z,0.00
2018-03-26T03:01:28.117Z,0.00
2018-03-26T03:02:28.095Z,0.00
2018-03-26T03:03:28.088Z,0.00
2018-03-26T03:04:28.077Z,0.00
2018-03-26T03:05:28.067Z,0.00
2018-03-26T03:06:28.057Z,0.00
2018-03-26T03:07:28.048Z,0.00
2018-03-26T03:08:28.038Z,0.00
2018-03-26T03:09:28.030Z,0.00
2018-03-26T03:10:28.018Z,0.00
2018-03-26T03:11:28.008Z,0.00
2018-03-26T03:12:28.000Z,0.00
2018-03-26T03:13:27.989Z,0.00
2018-03-26T03:14:27.980Z,0.00
2018-03-26T03:15:27.971Z,0.00
2018-03-26T03:16:27.959Z,0.00
2018-03-26T03:17:27.948Z,0.00
2018-03-26T03:18:27.941Z,0.00
2018-03-26T03:19:27.935Z,0.00
2018-03-26T03:20:27.922Z,0.00
2018-03-26T03:21:27.920Z,0.00
2018-03-26T03:22:27.901Z,0.00
2018-03-26T03:23:27.891Z,0.00
2018-03-26T03:24:27.877Z,0.00
2018-03-26T03:25:27.874Z,0.00
2018-03-26T03:26:27.866Z,0.00
2018-03-26T03:27:27.851Z,0.00
2018-03-26T03:28:27.842Z,0.00
2018-03-26T03:29:27.833Z,0.00
2018-03-26T03:30:27.823Z,0.00
2018-03-26T03:31:27.820Z,0.00
2018-03-26T03:32:27.805Z,0.00
2018-03-26T03:33:27.793Z,0.00
2018-03-26T03:34:27.786Z,0.00
2018-03-26T03:35:27.773Z,0.00
2018-03-26T03:36:27.766Z,0.00
2018-03-26T03:37:27.754Z,0.00
2018-03-26T03:38:27.746Z,0.00
2018-03-26T03:39:27.735Z,0.00
2018-03-26T03:40:27.724Z,0.00
2018-03-26T03:41:27.715Z,0.00
2018-03-26T03:42:27.703Z,0.00
2018-03-26T03:43:27.744Z,0.00
2018-03-26T03:44:27.685Z,0.00
2018-03-26T03:45:27.675Z,0.00
2018-03-26T03:46:27.666Z,0.00
2018-03-26T03:47:27.657Z,0.00
2018-03-26T03:48:27.646Z,0.00
2018-03-26T03:49:27.637Z,0.00
2018-03-26T03:50:27.627Z,0.00
2018-03-26T03:51:27.615Z,0.00
2018-03-26T03:52:27.607Z,0.00
2018-03-26T03:53:27.599Z,0.00
2018-03-26T03:54:27.587Z,0.00
2018-03-26T03:55:27.578Z,0.00
2018-03-26T03:56:27.569Z,0.00
2018-03-26T03:57:27.559Z,0.00
2018-03-26T03:58:27.547Z,0.00
2018-03-26T03:59:27.540Z,0.00
2018-03-26T04:00:27.529Z,0.00
2018-03-26T04:01:27.518Z,0.00
2018-03-26T04:02:27.509Z,0.00
2018-03-26T04:03:27.500Z,0.00
2018-03-26T04:04:27.490Z,0.00
2018-03-26T04:05:27.477Z,0.00
2018-03-26T04:06:27.472Z,0.00
2018-03-26T04:07:27.462Z,0.00
2018-03-26T04:08:27.451Z,0.00
2018-03-26T04:09:27.442Z,0.00
2018-03-26T04:10:27.431Z,0.00
2018-03-26T04:11:27.423Z,0.00
2018-03-26T04:12:27.413Z,0.00
2018-03-26T04:13:27.403Z,0.00
2018-03-26T04:14:27.393Z,0.00
2018-03-26T04:15:27.383Z,0.00
2018-03-26T04:16:27.372Z,0.00
2018-03-26T04:17:27.362Z,0.00
2018-03-26T04:18:27.354Z,0.00
2018-03-26T04:19:27.341Z,0.00
2018-03-26T04:20:27.332Z,0.00
2018-03-26T04:21:27.324Z,0.00
2018-03-26T04:22:27.311Z,0.00
2018-03-26T04:23:27.304Z,0.00
2018-03-26T04:24:27.295Z,0.00
2018-03-26T04:25:27.284Z,0.00
2018-03-26T04:26:27.323Z,0.00
2018-03-26T04:27:27.266Z,0.00
2018-03-26T04:28:27.253Z,0.00
2018-03-26T04:29:27.246Z,0.00
2018-03-26T04:30:27.233Z,0.00
2018-03-26T04:31:27.223Z,0.00
2018-03-26T04:32:27.213Z,0.00
2018-03-26T04:33:27.203Z,0.00
2018-03-26T04:34:27.193Z,0.00
2018-03-26T04:35:27.186Z,0.00
2018-03-26T04:36:27.179Z,0.00
2018-03-26T04:37:27.165Z,0.00
2018-03-26T04:38:27.153Z,0.00
2018-03-26T04:39:27.145Z,0.00
2018-03-26T04:40:27.136Z,0.00
2018-03-26T04:41:27.124Z,0.00
2018-03-26T04:42:27.116Z,0.00
2018-03-26T04:43:27.105Z,0.00
2018-03-26T04:44:27.097Z,0.00
2018-03-26T04:45:27.086Z,0.00
2018-03-26T04:46:27.078Z,0.00
2018-03-26T04:47:27.071Z,0.00
2018-03-26T04:48:27.060Z,0.00
2018-03-26T04:49:27.047Z,0.00
2018-03-26T04:50:27.087Z,0.00
2018-03-26T04:51:27.026Z,0.00
2018-03-26T04:52:27.020Z,0.00
2018-03-26T04:53:27.006Z,0.00
2018-03-26T04:54:26.996Z,0.00
2018-03-26T04:55:26.988Z,0.00
2018-03-26T04:56:26.978Z,0.00
2018-03-26T04:57:26.967Z,0.00
2018-03-26T04:58:26.960Z,0.00
2018-03-26T04:59:26.948Z,0.00
2018-03-26T05:00:26.939Z,0.00
2018-03-26T05:01:26.952Z,0.00
2018-03-26T05:02:26.917Z,0.00
2018-03-26T05:03:26.908Z,0.00
2018-03-26T05:04:26.898Z,0.00
2018-03-26T05:05:26.890Z,0.00
2018-03-26T05:06:26.879Z,0.00
2018-03-26T05:07:26.871Z,0.00
2018-03-26T05:08:26.858Z,0.00
2018-03-26T05:09:26.847Z,0.00
2018-03-26T05:10:26.840Z,0.00
2018-03-26T05:11:26.829Z,5.63
2018-03-26T05:12:26.820Z,5.63
2018-03-26T05:13:26.809Z,5.63
2018-03-26T05:14:26.811Z,5.63
2018-03-26T05:15:26.789Z,5.63
2018-03-26T05:16:26.781Z,5.63
2018-03-26T05:17:27.706Z,11.25
2018-03-26T05:18:26.760Z,11.25
2018-03-26T05:19:26.750Z,11.25
2018-03-26T05:20:26.737Z,11.25
2018-03-26T05:21:26.726Z,11.25
2018-03-26T05:22:26.721Z,11.25
2018-03-26T05:23:26.710Z,16.88
2018-03-26T05:24:26.701Z,16.88
2018-03-26T05:25:26.690Z,16.88
2018-03-26T05:26:26.683Z,16.88
2018-03-26T05:27:26.673Z,22.50
2018-03-26T05:28:26.661Z,22.50
2018-03-26T05:29:26.655Z,22.50
2018-03-26T05:30:26.641Z,22.50
2018-03-26T05:31:26.630Z,28.13
2018-03-26T05:32:26.624Z,28.13
2018-03-26T05:33:26.613Z,33.75
2018-03-26T05:34:26.603Z,33.75
2018-03-26T05:35:26.590Z,33.75
2018-03-26T05:36:26.587Z,33.75
2018-03-26T05:37:26.570Z,39.38
2018-03-26T05:38:26.564Z,39.38
2018-03-26T05:39:26.561Z,45.00
2018-03-26T05:40:26.574Z,45.00
2018-03-26T05:41:26.532Z,50.63
2018-03-26T05:42:26.523Z,56.25
2018-03-26T05:43:26.509Z,61.88
2018-03-26T05:44:26.505Z,67.50
2018-03-26T05:45:26.493Z,67.50
2018-03-26T05:46:26.483Z,73.13
2018-03-26T05:47:26.474Z,78.75
2018-03-26T05:48:26.464Z,84.38
2018-03-26T05:49:26.453Z,90.00
2018-03-26T05:50:26.438Z,90.00
2018-03-26T05:51:26.430Z,95.63
2018-03-26T05:52:26.428Z,101.25
2018-03-26T05:53:26.415Z,106.88
2018-03-26T05:54:26.407Z,101.25
2018-03-26T05:55:26.393Z,95.63
2018-03-26T05:56:26.387Z,95.63
2018-03-26T05:57:26.374Z,95.63
2018-03-26T05:58:26.365Z,101.25
2018-03-26T05:59:26.356Z,101.25
2018-03-26T06:00:26.347Z,106.88
2018-03-26T06:01:26.333Z,106.88
2018-03-26T06:02:26.324Z,106.88
2018-03-26T06:03:26.314Z,106.88
2018-03-26T06:04:26.307Z,112.50
2018-03-26T06:05:26.294Z,129.38
2018-03-26T06:06:26.287Z,140.63
2018-03-26T06:07:26.274Z,157.50
2018-03-26T06:08:26.269Z,180.00
2018-03-26T06:09:26.257Z,191.25
2018-03-26T06:10:26.247Z,196.88
2018-03-26T06:11:26.262Z,191.25
2018-03-26T06:12:26.233Z,191.25
2018-03-26T06:13:26.216Z,196.88
2018-03-26T06:14:26.208Z,208.13
2018-03-26T06:15:26.197Z,225.00
2018-03-26T06:16:26.190Z,241.88
2018-03-26T06:17:26.180Z,258.75
2018-03-26T06:18:26.164Z,270.00
2018-03-26T06:19:26.157Z,281.25
2018-03-26T06:20:26.148Z,286.88
2018-03-26T06:21:26.137Z,286.88
2018-03-26T06:22:26.132Z,281.25
2018-03-26T06:23:26.119Z,286.88
2018-03-26T06:24:26.110Z,298.13
2018-03-26T06:25:26.101Z,309.38
2018-03-26T06:26:26.088Z,309.38
2018-03-26T06:27:26.078Z,320.63
2018-03-26T06:28:26.072Z,326.25
2018-03-26T06:29:26.060Z,337.50
2018-03-26T06:30:26.061Z,348.75
2018-03-26T06:31:26.039Z,360.00
2018-03-26T06:32:26.033Z,365.63
2018-03-26T06:33:26.021Z,382.50
2018-03-26T06:34:26.018Z,405.00
2018-03-26T06:35:26.006Z,421.88
2018-03-26T06:36:25.991Z,444.38
2018-03-26T06:37:25.982Z,455.63
2018-03-26T06:38:25.978Z,455.63
2018-03-26T06:39:25.961Z,455.63
2018-03-26T06:40:25.955Z,455.63
2018-03-26T06:41:25.943Z,461.25
2018-03-26T06:42:25.934Z,483.75
2018-03-26T06:43:25.924Z,506.25
2018-03-26T06:44:25.915Z,528.75
2018-03-26T06:45:25.903Z,573.75
2018-03-26T06:46:25.896Z,590.63
2018-03-26T06:47:25.883Z,500.63
2018-03-26T06:48:25.880Z,483.75
2018-03-26T06:49:25.867Z,466.88
2018-03-26T06:50:25.858Z,455.63
2018-03-26T06:51:25.848Z,444.38
2018-03-26T06:52:25.837Z,450.00
2018-03-26T06:53:25.826Z,461.25
2018-03-26T06:54:25.824Z,478.13
2018-03-26T06:55:25.812Z,511.88
2018-03-26T06:56:25.798Z,551.25
2018-03-26T06:57:26.721Z,596.25
2018-03-26T06:58:25.776Z,635.63
2018-03-26T06:59:25.787Z,675.00
2018-03-26T07:00:25.760Z,691.88
2018-03-26T07:01:25.754Z,714.38
2018-03-26T07:02:25.741Z,753.75
2018-03-26T07:03:25.738Z,708.75
2018-03-26T07:04:25.722Z,708.75
2018-03-26T07:05:25.711Z,703.13
2018-03-26T07:06:25.703Z,720.00
2018-03-26T07:07:25.693Z,781.88
2018-03-26T07:08:25.687Z,748.13
2018-03-26T07:09:25.678Z,781.88
2018-03-26T07:10:26.679Z,894.38
2018-03-26T07:11:25.656Z,939.38
2018-03-26T07:12:25.696Z,1265.63
2018-03-26T07:13:25.637Z,1929.38
2018-03-26T07:14:25.630Z,1513.13
2018-03-26T07:15:25.619Z,1108.13
2018-03-26T07:16:25.611Z,900.00
2018-03-26T07:17:25.600Z,877.50
2018-03-26T07:18:25.591Z,1704.38
2018-03-26T07:19:25.604Z,1305.00
2018-03-26T07:20:25.573Z,1046.25
2018-03-26T07:21:25.563Z,815.63
2018-03-26T07:22:25.556Z,804.38
2018-03-26T07:23:25.548Z,984.38
2018-03-26T07:24:25.555Z,922.50
2018-03-26T07:25:25.527Z,838.13
2018-03-26T07:26:25.518Z,1108.13
2018-03-26T07:27:25.511Z,990.00
2018-03-26T07:28:25.506Z,765.00
2018-03-26T07:29:25.533Z,984.38
2018-03-26T07:30:25.497Z,1136.25
2018-03-26T07:31:25.479Z,1119.38
2018-03-26T07:32:25.470Z,1046.25
2018-03-26T07:33:25.459Z,1012.50
2018-03-26T07:34:25.452Z,1158.75
2018-03-26T07:35:25.447Z,1366.88
2018-03-26T07:36:25.438Z,1248.75
2018-03-26T07:37:25.428Z,1125.00
2018-03-26T07:38:25.423Z,1254.38
2018-03-26T07:39:25.436Z,1552.50
2018-03-26T07:40:25.399Z,1305.00
2018-03-26T07:41:25.394Z,1445.63
2018-03-26T07:42:25.404Z,1670.63
2018-03-26T07:43:25.406Z,2013.75
2018-03-26T07:44:25.370Z,1929.38
2018-03-26T07:45:25.362Z,1327.50
2018-03-26T07:46:25.353Z,1473.75
2018-03-26T07:47:25.377Z,1923.75
2018-03-26T07:48:25.341Z,2255.63
2018-03-26T07:49:25.333Z,2846.25
2018-03-26T07:50:25.323Z,3065.63
2018-03-26T07:51:25.312Z,1951.88
2018-03-26T07:52:25.306Z,1074.38
2018-03-26T07:53:25.302Z,1366.88
2018-03-26T07:54:25.285Z,1698.75
2018-03-26T07:55:25.284Z,1546.88
2018-03-26T07:56:25.275Z,1344.38
2018-03-26T07:57:25.268Z,1338.75
2018-03-26T07:58:25.262Z,1456.88
2018-03-26T07:59:25.254Z,1496.25
2018-03-26T08:00:25.825Z,1501.88
2018-03-26T08:01:25.239Z,1614.38
2018-03-26T08:02:25.227Z,1417.50
2018-03-26T08:03:25.966Z,1366.88
2018-03-26T08:04:25.214Z,1203.75
2018-03-26T08:05:25.211Z,1158.75
2018-03-26T08:06:25.212Z,1130.63
2018-03-26T08:07:25.192Z,1260.00
2018-03-26T08:08:25.185Z,1383.75
2018-03-26T08:09:25.179Z,1198.13
2018-03-26T08:10:25.172Z,1321.88
2018-03-26T08:11:25.179Z,1805.63
2018-03-26T08:12:25.159Z,1625.63
2018-03-26T08:13:25.150Z,1485.00
2018-03-26T08:14:25.139Z,1608.75
2018-03-26T08:15:25.131Z,1659.38
2018-03-26T08:16:25.128Z,1929.38
2018-03-26T08:17:25.125Z,2160.00
2018-03-26T08:18:25.113Z,1912.50
2018-03-26T08:19:25.103Z,1681.88
2018-03-26T08:20:25.100Z,1580.63
2018-03-26T08:21:25.087Z,2047.50
2018-03-26T08:22:25.078Z,1996.88
2018-03-26T08:23:25.080Z,1788.75
2018-03-26T08:24:25.071Z,2002.50
2018-03-26T08:25:25.063Z,2064.38
2018-03-26T08:26:25.060Z,2205.00
2018-03-26T08:27:25.044Z,2368.13
2018-03-26T08:28:25.039Z,2328.75
2018-03-26T08:29:25.035Z,2086.88
2018-03-26T08:30:25.028Z,1985.63
2018-03-26T08:31:25.023Z,2356.88
2018-03-26T08:32:25.015Z,2503.13
2018-03-26T08:33:25.007Z,2655.00
2018-03-26T08:34:25.018Z,3009.38
2018-03-26T08:35:25.004Z,3200.63
2018-03-26T08:36:25.015Z,3110.63
2018-03-26T08:37:24.984Z,3566.25
2018-03-26T08:38:24.981Z,4280.63
2018-03-26T08:39:24.977Z,4910.63
2018-03-26T08:40:24.970Z,4567.50
2018-03-26T08:41:24.958Z,4640.63
2018-03-26T08:42:25.029Z,5141.25
2018-03-26T08:43:24.951Z,4837.50
2018-03-26T08:44:24.951Z,4511.25
2018-03-26T08:45:24.948Z,5107.50
2018-03-26T08:46:24.944Z,5265.00
2018-03-26T08:47:24.938Z,5113.13
2018-03-26T08:48:24.934Z,4820.63
2018-03-26T08:49:24.962Z,5045.63
2018-03-26T08:50:24.962Z,5006.25
2018-03-26T08:51:24.933Z,4983.75
2018-03-26T08:52:24.926Z,5118.75
2018-03-26T08:53:24.922Z,5371.88
2018-03-26T08:54:24.920Z,5400.00
2018-03-26T08:55:24.922Z,5461.88
2018-03-26T08:56:24.919Z,5664.38
2018-03-26T08:57:24.920Z,5686.88
2018-03-26T08:58:24.915Z,5827.50
2018-03-26T08:59:24.920Z,5956.88
2018-03-26T09:00:24.920Z,5613.75
2018-03-26T09:01:24.915Z,5546.25
2018-03-26T09:02:24.917Z,5563.13
2018-03-26T09:03:24.917Z,5535.00
2018-03-26T09:04:24.920Z,5546.25
2018-03-26T09:05:24.918Z,5827.50
2018-03-26T09:06:24.920Z,5900.63
2018-03-26T09:07:24.931Z,5838.75
2018-03-26T09:08:24.925Z,5928.75
2018-03-26T09:09:24.928Z,6041.25
2018-03-26T09:10:24.927Z,6165.00
2018-03-26T09:11:24.928Z,6153.75
2018-03-26T09:12:24.937Z,6052.50
2018-03-26T09:13:24.932Z,5855.63
2018-03-26T09:14:24.932Z,5523.75
2018-03-26T09:15:24.935Z,5653.13
2018-03-26T09:16:24.947Z,5720.63
2018-03-26T09:17:24.946Z,5872.50
2018-03-26T09:18:24.947Z,5686.88
2018-03-26T09:19:24.952Z,5484.38
2018-03-26T09:20:24.952Z,5692.50
2018-03-26T09:21:24.950Z,6024.38
2018-03-26T09:22:24.961Z,6114.38
2018-03-26T09:23:24.959Z,5917.50
2018-03-26T09:24:24.965Z,5580.00
2018-03-26T09:25:24.967Z,5630.63
2018-03-26T09:26:24.972Z,5805.00
2018-03-26T09:27:24.976Z,5956.88
2018-03-26T09:28:24.979Z,5990.63
2018-03-26T09:29:24.982Z,6086.25
2018-03-26T09:30:24.987Z,6384.38
2018-03-26T09:31:24.992Z,6626.25
2018-03-26T09:32:25.030Z,6519.38
2018-03-26T09:33:25.001Z,6429.38
2018-03-26T09:34:25.003Z,6463.13
2018-03-26T09:35:25.042Z,6384.38
2018-03-26T09:36:25.012Z,6221.25
2018-03-26T09:37:25.017Z,6007.50
2018-03-26T09:38:25.023Z,6030.00
2018-03-26T09:39:25.673Z,6271.88
2018-03-26T09:40:25.038Z,6091.88
2018-03-26T09:41:25.041Z,5478.75
2018-03-26T09:42:25.042Z,5546.25
2018-03-26T09:43:25.051Z,5844.38
2018-03-26T09:44:25.059Z,5911.88
2018-03-26T09:45:25.063Z,6046.88
2018-03-26T09:46:25.069Z,5973.75
2018-03-26T09:47:25.074Z,5979.38
2018-03-26T09:48:25.078Z,6283.13
2018-03-26T09:49:25.109Z,6727.50
2018-03-26T09:50:25.090Z,6721.88
2018-03-26T09:51:25.097Z,6541.88
2018-03-26T09:52:25.107Z,6423.75
2018-03-26T09:53:25.148Z,6435.00
2018-03-26T09:54:25.114Z,6007.50
2018-03-26T09:55:25.118Z,5585.63
2018-03-26T09:56:25.162Z,5670.00
2018-03-26T09:57:25.138Z,5838.75
2018-03-26T09:58:25.142Z,5748.75
2018-03-26T09:59:25.152Z,5726.25
2018-03-26T10:00:25.152Z,5743.13
2018-03-26T10:01:25.156Z,5805.00
2018-03-26T10:02:25.165Z,5743.13
2018-03-26T10:03:25.403Z,5968.13
2018-03-26T10:04:25.180Z,6328.13
2018-03-26T10:05:25.184Z,6120.00
2018-03-26T10:06:25.196Z,5956.88
2018-03-26T10:07:25.197Z,5962.50
2018-03-26T10:08:25.752Z,6103.13
2018-03-26T10:09:25.235Z,6221.25
2018-03-26T10:10:25.218Z,6052.50
2018-03-26T10:11:25.225Z,6181.88
2018-03-26T10:12:25.232Z,6080.63
2018-03-26T10:13:25.236Z,5782.50
2018-03-26T10:14:25.243Z,5647.50
2018-03-26T10:15:25.250Z,5580.00
2018-03-26T10:16:25.259Z,5737.50
2018-03-26T10:17:25.264Z,5951.25
2018-03-26T10:18:25.275Z,5934.38
2018-03-26T10:19:25.285Z,5855.63
2018-03-26T10:20:25.283Z,6001.88
2018-03-26T10:21:25.288Z,6007.50
2018-03-26T10:22:25.302Z,5850.00
2018-03-26T10:23:25.308Z,6013.13
2018-03-26T10:24:25.314Z,6046.88
2018-03-26T10:25:25.321Z,6075.00
2018-03-26T10:26:25.327Z,6260.63
2018-03-26T10:27:25.337Z,6361.88
2018-03-26T10:28:25.350Z,6435.00
2018-03-26T10:29:25.347Z,6367.50
2018-03-26T10:30:25.357Z,6412.50
2018-03-26T10:31:25.367Z,6165.00
2018-03-26T10:32:25.371Z,5242.50
2018-03-26T10:33:25.380Z,5968.13
2018-03-26T10:34:25.383Z,6429.38
2018-03-26T10:35:25.395Z,6468.75
2018-03-26T10:36:25.406Z,3616.88
2018-03-26T10:37:25.409Z,6800.63
2018-03-26T10:38:25.415Z,6513.75
2018-03-26T10:39:25.428Z,5765.63
2018-03-26T10:40:25.431Z,6750.00
2018-03-26T10:41:25.439Z,6834.38
2018-03-26T10:42:25.444Z,6845.63
2018-03-26T10:43:25.452Z,6840.00
2018-03-26T10:44:25.457Z,6772.50
2018-03-26T10:45:25.464Z,6339.38
2018-03-26T10:46:25.473Z,6373.13
2018-03-26T10:47:25.479Z,6451.88
2018-03-26T10:48:25.485Z,6440.63
2018-03-26T10:49:25.498Z,6356.25
2018-03-26T10:50:25.499Z,6384.38
2018-03-26T10:51:25.509Z,6463.13
2018-03-26T10:52:25.513Z,6373.13
2018-03-26T10:53:25.523Z,6198.75
2018-03-26T10:54:25.526Z,6120.00
2018-03-26T10:55:25.533Z,6367.50
2018-03-26T10:56:25.544Z,6564.38
2018-03-26T10:57:25.546Z,6547.50
2018-03-26T10:58:25.554Z,6693.75
2018-03-26T10:59:25.560Z,6733.13
2018-03-26T11:00:25.613Z,6361.88
2018-03-26T11:01:25.574Z,5962.50
2018-03-26T11:02:25.583Z,5900.63
2018-03-26T11:03:25.592Z,5265.00
2018-03-26T11:04:25.609Z,5653.13
2018-03-26T11:05:25.598Z,6159.38
2018-03-26T11:06:25.605Z,6356.25
2018-03-26T11:07:25.620Z,6356.25
2018-03-26T11:08:25.623Z,5388.75
2018-03-26T11:09:25.648Z,5068.13
2018-03-26T11:10:25.631Z,4927.50
2018-03-26T11:11:25.638Z,4674.38
2018-03-26T11:12:25.645Z,4623.75
2018-03-26T11:13:25.652Z,5506.88
2018-03-26T11:14:25.658Z,5636.25
2018-03-26T11:15:25.662Z,5574.38
2018-03-26T11:16:25.669Z,5490.00
2018-03-26T11:17:25.675Z,5658.75
2018-03-26T11:18:25.681Z,5748.75
2018-03-26T11:19:25.718Z,6024.38
2018-03-26T11:20:25.695Z,6046.88
2018-03-26T11:21:25.703Z,5647.50
2018-03-26T11:22:25.708Z,5422.50
2018-03-26T11:23:25.714Z,5580.00
2018-03-26T11:24:25.720Z,5703.75
2018-03-26T11:25:25.725Z,5940.00
2018-03-26T11:26:25.736Z,5844.38
2018-03-26T11:27:25.865Z,5101.88
2018-03-26T11:28:25.746Z,5068.13
2018-03-26T11:29:25.786Z,5090.63
2018-03-26T11:30:25.761Z,5236.88
2018-03-26T11:31:25.764Z,5332.50
2018-03-26T11:32:25.768Z,5163.75
2018-03-26T11:33:25.774Z,4860.00
2018-03-26T11:34:25.781Z,4916.25
2018-03-26T11:35:25.789Z,4905.00
2018-03-26T11:36:25.865Z,5000.63
2018-03-26T11:37:25.802Z,4736.25
2018-03-26T11:38:25.805Z,4190.63
2018-03-26T11:39:25.813Z,3751.88
2018-03-26T11:40:25.820Z,4179.38
2018-03-26T11:41:25.831Z,4213.13
2018-03-26T11:42:25.837Z,4258.13
2018-03-26T11:43:25.838Z,4640.63
2018-03-26T11:44:25.841Z,4674.38
2018-03-26T11:45:25.854Z,4477.50
2018-03-26T11:46:25.852Z,5096.25
2018-03-26T11:47:25.874Z,4950.00
2018-03-26T11:48:25.869Z,4820.63
2018-03-26T11:49:25.872Z,4590.00
2018-03-26T11:50:25.884Z,4573.13
2018-03-26T11:51:25.882Z,4471.88
2018-03-26T11:52:25.887Z,4567.50
2018-03-26T11:53:25.893Z,4646.25
2018-03-26T11:54:25.904Z,4477.50
2018-03-26T11:55:25.904Z,4398.75
2018-03-26T11:56:25.910Z,4685.63
2018-03-26T11:57:25.918Z,4927.50
2018-03-26T11:58:25.918Z,4685.63
2018-03-26T11:59:25.923Z,4708.13
2018-03-26T12:00:25.929Z,4488.75
2018-03-26T12:01:25.939Z,4410.00
2018-03-26T12:02:25.960Z,4421.25
2018-03-26T12:03:25.943Z,4314.38
2018-03-26T12:04:25.949Z,1659.38
2018-03-26T12:05:25.954Z,1755.00
2018-03-26T12:06:25.961Z,1400.63
2018-03-26T12:07:25.970Z,2047.50
2018-03-26T12:08:25.981Z,4359.38
2018-03-26T12:09:25.976Z,4488.75
2018-03-26T12:10:25.980Z,4336.88
2018-03-26T12:11:25.988Z,3791.25
2018-03-26T12:12:25.988Z,4078.13
2018-03-26T12:13:25.994Z,4179.38
2018-03-26T12:14:26.000Z,4061.25
2018-03-26T12:15:25.998Z,4050.00
2018-03-26T12:16:26.007Z,4201.88
2018-03-26T12:17:26.009Z,2795.63
2018-03-26T12:18:26.014Z,3774.38
2018-03-26T12:19:26.019Z,3605.63
2018-03-26T12:20:26.025Z,1355.63
2018-03-26T12:21:26.025Z,3217.50
2018-03-26T12:22:26.028Z,4123.13
2018-03-26T12:23:26.033Z,4246.88
2018-03-26T12:24:26.038Z,4173.75
2018-03-26T12:25:26.040Z,3864.38
2018-03-26T12:26:26.046Z,4246.88
2018-03-26T12:27:26.053Z,4477.50
2018-03-26T12:28:26.053Z,4471.88
2018-03-26T12:29:26.056Z,4539.38
2018-03-26T12:30:26.064Z,4640.63
2018-03-26T12:31:26.064Z,4500.00
2018-03-26T12:32:26.111Z,4027.50
2018-03-26T12:33:26.073Z,4269.38
2018-03-26T12:34:26.076Z,4303.13
2018-03-26T12:35:26.080Z,3796.88
2018-03-26T12:36:26.085Z,3937.50
2018-03-26T12:37:26.087Z,3667.50
2018-03-26T12:38:26.093Z,3791.25
2018-03-26T12:39:26.092Z,3622.50